Time;durP1;ratioP1;P1;durP2;ratioP2;P2;SDS_P1;SDS_P2;PMS_P1;PMS_P2;Temp;Humidity;BMP_temperature;BMP_pressure;BME280_temperature;BME280_humidity;BME280_pressure;Samples;Min_cycle;Max_cycle;Signal;HPM_P1;HPM_P2
2023/02/01 00:00:50;;;;;;;17.58;5.43;;;6.60;99.90;;;;;;5106944;28;20217;-76
2023/02/01 00:03:26;;;;;;;16.08;4.55;;;6.60;99.90;;;;;;5109853;28;20201;-74
2023/02/01 00:06:10;;;;;;;26.55;6.22;;;6.60;99.90;;;;;;5120162;28;20229;-77
2023/02/01 00:08:36;;;;;;;27.48;6.60;;;6.70;99.90;;;;;;5113620;28;20236;-76
2023/02/01 00:12:01;;;;;;;33.13;4.93;;;6.60;99.90;;;;;;5115528;28;20231;-76
2023/02/01 00:14:29;;;;;;;12.65;5.88;;;6.60;99.90;;;;;;5097604;28;20635;-77
2023/02/01 00:17:01;;;;;;;17.50;6.20;;;6.60;99.90;;;;;;5095161;28;20754;-76
2023/02/01 00:19:28;;;;;;;16.10;5.35;;;6.70;99.90;;;;;;5114575;27;20200;-76
2023/02/01 00:22:27;;;;;;;11.60;3.35;;;6.70;99.90;;;;;;5123128;27;20308;-75
2023/02/01 00:28:43;;;;;;;23.52;6.10;;;6.70;99.90;;;;;;5098800;28;20195;-76
2023/02/01 00:31:10;;;;;;;20.92;6.82;;;6.70;99.90;;;;;;5118152;27;20666;-76
2023/02/01 00:33:38;;;;;;;18.20;6.22;;;6.70;99.90;;;;;;5112689;27;20206;-77
2023/02/01 00:36:08;;;;;;;39.90;7.30;;;6.80;99.90;;;;;;5123795;27;20465;-76
2023/02/01 00:38:38;;;;;;;29.15;6.00;;;6.80;99.90;;;;;;5106915;27;20302;-77
2023/02/01 00:41:06;;;;;;;17.15;4.10;;;6.80;99.90;;;;;;5116336;27;20241;-76
2023/02/01 00:43:35;;;;;;;25.38;3.95;;;6.80;99.90;;;;;;5107570;27;20224;-75
2023/02/01 00:46:02;;;;;;;18.13;6.00;;;6.80;99.90;;;;;;5116001;27;20311;-77
2023/02/01 00:48:29;;;;;;;21.10;6.22;;;6.80;99.90;;;;;;5128085;27;20248;-77
2023/02/01 00:51:00;;;;;;;21.27;5.22;;;6.80;99.90;;;;;;5097148;28;20194;-77
2023/02/01 00:53:27;;;;;;;22.77;5.53;;;6.90;99.90;;;;;;5114513;27;20203;-77
2023/02/01 00:55:58;;;;;;;11.85;4.47;;;6.90;99.90;;;;;;5129926;27;20215;-76
2023/02/01 00:58:26;;;;;;;24.40;6.53;;;6.90;99.90;;;;;;5122534;27;20248;-77
2023/02/01 01:01:03;;;;;;;21.13;5.07;;;6.90;99.90;;;;;;5115838;27;20668;-76
2023/02/01 01:03:33;;;;;;;16.45;4.72;;;6.90;99.90;;;;;;5119226;27;20204;-76
2023/02/01 01:06:02;;;;;;;20.25;4.20;;;6.90;99.90;;;;;;5116137;27;20241;-76
2023/02/01 01:08:29;;;;;;;18.63;5.30;;;7.00;99.90;;;;;;5117775;27;20541;-77
2023/02/01 01:10:57;;;;;;;24.00;4.63;;;6.90;99.90;;;;;;5119469;27;20288;-76
2023/02/01 01:13:24;;;;;;;11.85;4.57;;;6.90;99.90;;;;;;5124649;27;20205;-76
2023/02/01 01:15:51;;;;;;;18.40;5.18;;;6.90;99.90;;;;;;5126725;27;20217;-76
2023/02/01 01:18:18;;;;;;;12.02;5.57;;;6.90;99.90;;;;;;5122921;27;20198;-76
2023/02/01 01:20:45;;;;;;;23.10;4.90;;;6.90;99.90;;;;;;5121355;27;20346;-76
2023/02/01 01:23:12;;;;;;;14.48;5.38;;;6.90;99.90;;;;;;5125778;27;20307;-76
2023/02/01 01:25:39;;;;;;;15.10;4.60;;;6.90;99.90;;;;;;5119778;27;20228;-77
2023/02/01 01:28:08;;;;;;;21.88;5.22;;;6.90;99.90;;;;;;5113260;27;20289;-77
2023/02/01 01:30:35;;;;;;;27.23;6.15;;;6.80;99.90;;;;;;5110931;27;20295;-76
2023/02/01 01:33:03;;;;;;;16.38;4.93;;;6.90;99.90;;;;;;5116427;27;20201;-77
2023/02/01 01:35:31;;;;;;;19.83;4.47;;;6.90;99.90;;;;;;5124788;27;20324;-76
2023/02/01 01:37:59;;;;;;;26.42;4.28;;;7.00;99.90;;;;;;5123896;27;20213;-76
2023/02/01 01:40:27;;;;;;;25.13;5.53;;;6.90;99.90;;;;;;5106430;28;20646;-75
2023/02/01 01:42:55;;;;;;;34.53;6.00;;;6.90;99.90;;;;;;5122592;27;20244;-76
2023/02/01 01:45:27;;;;;;;25.38;4.88;;;7.00;99.90;;;;;;5122925;27;20235;-76
2023/02/01 01:47:55;;;;;;;16.17;4.18;;;6.90;99.90;;;;;;5115096;28;20205;-76
2023/02/01 01:50:26;;;;;;;20.33;4.68;;;6.90;99.90;;;;;;5112665;27;20212;-75
2023/02/01 01:52:56;;;;;;;21.83;4.22;;;6.90;99.90;;;;;;5123327;27;20283;-77
2023/02/01 01:55:25;;;;;;;20.70;8.00;;;7.00;99.90;;;;;;5121083;27;20221;-77
2023/02/01 01:57:58;;;;;;;15.45;4.47;;;6.90;99.90;;;;;;5124901;27;20193;-76
2023/02/01 02:00:26;;;;;;;21.00;6.28;;;7.00;99.90;;;;;;5110009;27;20287;-76
2023/02/01 02:02:57;;;;;;;23.10;5.13;;;7.00;99.90;;;;;;5123765;27;20219;-76
2023/02/01 02:05:24;;;;;;;17.60;5.07;;;7.00;99.90;;;;;;5131351;27;20220;-76
2023/02/01 02:07:54;;;;;;;19.25;4.97;;;7.00;99.90;;;;;;5125291;27;20201;-76
2023/02/01 02:10:59;;;;;;;21.40;6.00;;;7.00;99.90;;;;;;5126751;27;20205;-75
2023/02/01 02:13:08;;;;;;;22.08;4.90;;;7.00;99.90;;;;;;5122688;27;20198;-76
2023/02/01 02:15:42;;;;;;;15.85;3.75;;;7.00;99.90;;;;;;5127350;27;20224;-77
2023/02/01 02:18:19;;;;;;;16.20;4.55;;;7.00;99.90;;;;;;5115731;27;20198;-76
2023/02/01 02:21:30;;;;;;;20.40;4.05;;;7.00;99.90;;;;;;5117231;27;20224;-76
2023/02/01 02:24:27;;;;;;;21.48;5.22;;;6.90;99.90;;;;;;5104995;28;20249;-75
2023/02/01 02:27:24;;;;;;;16.65;4.43;;;6.90;99.90;;;;;;5100272;28;20239;-75
2023/02/01 02:30:42;;;;;;;19.33;4.90;;;6.90;99.90;;;;;;5105961;27;20219;-76
2023/02/01 02:33:51;;;;;;;23.08;5.07;;;6.80;99.90;;;;;;5100013;28;20327;-76
2023/02/01 02:36:25;;;;;;;24.20;4.80;;;6.80;99.90;;;;;;5108227;27;20328;-76
2023/02/01 02:39:02;;;;;;;23.35;4.35;;;6.80;99.90;;;;;;5099089;27;20239;-75
2023/02/01 02:47:29;;;;;;;13.07;4.28;;;6.80;99.90;;;;;;5050336;28;20216;-76
2023/02/01 02:55:43;;;;;;;9.82;3.17;;;6.80;99.90;;;;;;5116463;27;20588;-76
2023/02/01 03:04:08;;;;;;;17.23;5.97;;;6.80;99.90;;;;;;5106705;27;20212;-76
2023/02/01 03:06:38;;;;;;;21.23;4.20;;;6.80;99.90;;;;;;5117146;27;20228;-76
2023/02/01 03:09:10;;;;;;;12.73;5.00;;;6.90;99.90;;;;;;5108011;27;20227;-76
2023/02/01 03:14:25;;;;;;;15.85;4.38;;;6.80;99.90;;;;;;5107499;28;20666;-77
2023/02/01 03:16:59;;;;;;;13.43;3.80;;;6.70;99.90;;;;;;5122306;27;20755;-77
2023/02/01 03:19:30;;;;;;;18.23;4.25;;;6.70;99.90;;;;;;5126905;27;20231;-77
2023/02/01 03:22:02;;;;;;;24.77;5.95;;;6.80;99.90;;;;;;5116370;27;20686;-76
2023/02/01 03:24:33;;;;;;;14.43;3.72;;;6.80;99.90;;;;;;5124931;27;20675;-76
2023/02/01 03:27:14;;;;;;;13.77;3.60;;;6.80;99.90;;;;;;5114164;27;20284;-76
2023/02/01 03:29:46;;;;;;;22.27;4.03;;;6.70;99.90;;;;;;5101199;27;20648;-77
2023/02/01 03:32:13;;;;;;;21.02;4.07;;;6.70;99.90;;;;;;5108456;27;20192;-76
2023/02/01 03:34:40;;;;;;;20.80;4.22;;;6.70;99.90;;;;;;5122346;27;20579;-77
2023/02/01 03:37:11;;;;;;;16.23;4.05;;;6.60;99.90;;;;;;5107511;27;20312;-76
2023/02/01 03:39:46;;;;;;;23.45;3.83;;;6.50;99.90;;;;;;5127313;27;20289;-76
2023/02/01 03:42:18;;;;;;;16.80;4.45;;;6.40;99.90;;;;;;5112800;27;20319;-76
2023/02/01 03:44:51;;;;;;;25.80;4.53;;;6.40;99.90;;;;;;5123016;27;20626;-76
2023/02/01 03:47:21;;;;;;;16.40;4.13;;;6.40;99.90;;;;;;5116882;28;20673;-76
2023/02/01 03:49:53;;;;;;;21.15;4.38;;;6.30;99.90;;;;;;5124125;28;20223;-76
2023/02/01 03:52:27;;;;;;;18.33;5.60;;;6.30;99.90;;;;;;5107693;27;20201;-76
2023/02/01 03:54:55;;;;;;;19.38;3.80;;;6.20;99.90;;;;;;5201181;22;20325;-76
2023/02/01 03:57:27;;;;;;;18.35;5.03;;;6.20;99.90;;;;;;5077652;28;20245;-77
2023/02/01 03:59:54;;;;;;;13.65;5.45;;;6.10;99.90;;;;;;5080409;28;20662;-76
2023/02/01 04:02:21;;;;;;;13.38;5.18;;;6.10;99.90;;;;;;5078382;28;20303;-76
2023/02/01 04:04:48;;;;;;;17.02;3.72;;;6.00;99.90;;;;;;5071209;28;20197;-76
2023/02/01 04:07:16;;;;;;;21.75;3.90;;;6.00;99.90;;;;;;5076603;28;20204;-77
2023/02/01 04:09:45;;;;;;;9.30;3.53;;;6.00;99.90;;;;;;5079927;28;20226;-77
2023/02/01 04:12:12;;;;;;;11.05;3.40;;;5.90;99.90;;;;;;5070207;28;20345;-77
2023/02/01 04:14:39;;;;;;;10.25;3.10;;;6.00;99.90;;;;;;5075920;28;20262;-77
2023/02/01 04:17:05;;;;;;;14.98;3.97;;;5.90;99.90;;;;;;5066276;28;20205;-76
2023/02/01 04:19:32;;;;;;;15.20;4.30;;;5.90;99.90;;;;;;5075169;28;20233;-76
2023/02/01 04:21:59;;;;;;;15.02;3.55;;;5.80;99.90;;;;;;5076325;28;20322;-76
2023/02/01 04:24:26;;;;;;;15.63;4.97;;;5.80;99.90;;;;;;5061151;28;20292;-74
2023/02/01 04:26:54;;;;;;;10.75;3.42;;;5.80;99.90;;;;;;5084326;28;20231;-77
2023/02/01 04:29:21;;;;;;;12.45;4.00;;;5.80;99.90;;;;;;5075571;28;20207;-76
2023/02/01 04:31:49;;;;;;;18.30;5.43;;;5.80;99.90;;;;;;5064763;28;20239;-76
2023/02/01 04:34:16;;;;;;;20.75;5.25;;;5.80;99.90;;;;;;5077540;28;20222;-76
2023/02/01 04:36:43;;;;;;;13.23;4.63;;;5.80;99.90;;;;;;5065590;28;20224;-76
2023/02/01 04:39:10;;;;;;;16.90;4.07;;;5.90;99.90;;;;;;5084963;28;20283;-76
2023/02/01 04:41:37;;;;;;;13.80;4.43;;;5.90;99.90;;;;;;5057477;28;20233;-76
2023/02/01 04:44:05;;;;;;;17.13;5.28;;;5.90;99.90;;;;;;5071691;28;20262;-76
2023/02/01 04:46:32;;;;;;;13.90;5.55;;;5.90;99.90;;;;;;5070781;28;20221;-76
2023/02/01 04:48:59;;;;;;;16.80;4.15;;;5.90;99.90;;;;;;5065567;28;20288;-76
2023/02/01 04:51:27;;;;;;;16.23;4.28;;;6.00;99.90;;;;;;5073698;28;20232;-77
2023/02/01 04:53:55;;;;;;;14.25;4.85;;;6.00;99.90;;;;;;5078504;28;20256;-77
2023/02/01 04:56:22;;;;;;;15.63;4.82;;;6.00;99.90;;;;;;5064758;28;20249;-76
2023/02/01 04:58:49;;;;;;;21.92;6.35;;;6.00;99.90;;;;;;5083648;28;20269;-77
2023/02/01 05:01:17;;;;;;;20.40;5.03;;;5.90;99.90;;;;;;5066032;28;20586;-77
2023/02/01 05:03:44;;;;;;;13.95;4.55;;;6.10;99.90;;;;;;5069918;28;20662;-77
2023/02/01 05:06:11;;;;;;;12.10;5.82;;;6.10;99.90;;;;;;5080375;28;20267;-76
2023/02/01 05:08:38;;;;;;;24.52;7.13;;;6.10;99.90;;;;;;5074838;28;20292;-77
2023/02/01 05:11:05;;;;;;;19.40;5.30;;;6.10;99.90;;;;;;5083560;28;20299;-77
2023/02/01 05:13:50;;;;;;;20.45;5.60;;;6.10;99.90;;;;;;5066260;28;20288;-77
2023/02/01 05:16:18;;;;;;;26.17;4.97;;;6.10;99.90;;;;;;5067039;28;20220;-76
2023/02/01 05:18:45;;;;;;;22.88;4.75;;;6.10;99.90;;;;;;5068147;28;20225;-78
2023/02/01 05:21:12;;;;;;;23.20;5.00;;;6.10;99.90;;;;;;5076840;28;20285;-77
2023/02/01 05:26:19;;;;;;;10.02;3.70;;;6.20;99.90;;;;;;5070284;28;20244;-77
2023/02/01 05:28:46;;;;;;;17.48;4.82;;;6.10;99.90;;;;;;5062248;28;20281;-77
2023/02/01 05:31:13;;;;;;;20.73;6.40;;;6.10;99.90;;;;;;5076357;28;20288;-76
2023/02/01 05:33:42;;;;;;;14.45;4.10;;;6.10;99.90;;;;;;5072394;28;20277;-76
2023/02/01 05:36:09;;;;;;;10.68;2.92;;;6.10;99.90;;;;;;5069671;28;20223;-76
2023/02/01 05:38:35;;;;;;;14.00;4.38;;;6.20;99.90;;;;;;5076613;28;20197;-75
2023/02/01 05:41:03;;;;;;;19.90;4.78;;;6.20;99.90;;;;;;5077694;28;20209;-77
2023/02/01 05:43:30;;;;;;;14.05;4.93;;;6.30;99.90;;;;;;5070438;28;20264;-75
2023/02/01 05:45:57;;;;;;;7.18;2.90;;;6.20;99.90;;;;;;5066828;28;20230;-77
2023/02/01 05:48:24;;;;;;;12.30;3.83;;;6.20;99.90;;;;;;5069767;28;20734;-76
2023/02/01 05:50:52;;;;;;;12.70;5.43;;;6.20;99.90;;;;;;5078645;28;20228;-77
2023/02/01 05:53:19;;;;;;;10.05;4.47;;;6.30;99.90;;;;;;5084428;28;20228;-77
2023/02/01 05:55:46;;;;;;;13.80;3.53;;;6.30;99.90;;;;;;5071004;28;20754;-77
2023/02/01 05:58:15;;;;;;;14.88;2.92;;;6.30;99.90;;;;;;5066064;28;20202;-76
2023/02/01 06:00:42;;;;;;;20.88;4.20;;;6.30;99.90;;;;;;5065677;28;20625;-77
2023/02/01 06:03:09;;;;;;;13.15;2.97;;;6.30;99.90;;;;;;5079675;28;20245;-77
2023/02/01 06:05:36;;;;;;;21.75;4.13;;;6.30;99.90;;;;;;5073533;28;20274;-77
2023/02/01 06:08:07;;;;;;;10.75;3.60;;;6.20;99.90;;;;;;5074172;28;20200;-77
2023/02/01 06:10:34;;;;;;;14.73;4.57;;;6.20;99.90;;;;;;5073359;28;20593;-77
2023/02/01 06:13:02;;;;;;;17.50;5.15;;;6.20;99.90;;;;;;5073335;28;20281;-75
2023/02/01 06:15:30;;;;;;;27.67;4.00;;;6.10;99.90;;;;;;5064453;28;20223;-76
2023/02/01 06:17:58;;;;;;;17.48;4.80;;;6.20;99.90;;;;;;5065150;28;20235;-75
2023/02/01 06:20:25;;;;;;;14.65;5.25;;;6.20;99.90;;;;;;5063996;28;20208;-75
2023/02/01 06:22:53;;;;;;;9.18;4.00;;;6.20;99.90;;;;;;5067524;28;20260;-76
2023/02/01 06:25:21;;;;;;;12.00;4.40;;;6.30;99.90;;;;;;5066361;28;20220;-76
2023/02/01 06:27:49;;;;;;;9.73;4.20;;;6.30;99.90;;;;;;5072925;28;20213;-76
2023/02/01 06:30:17;;;;;;;10.05;3.90;;;6.30;99.90;;;;;;5070640;28;20198;-76
2023/02/01 06:32:44;;;;;;;15.95;4.32;;;6.30;99.90;;;;;;5069419;28;20230;-80
2023/02/01 06:35:15;;;;;;;11.35;3.78;;;6.30;99.90;;;;;;5065175;28;20628;-79
2023/02/01 06:37:42;;;;;;;11.75;3.20;;;6.30;99.90;;;;;;5074591;28;20658;-78
2023/02/01 06:40:12;;;;;;;20.17;4.72;;;6.30;99.90;;;;;;5065119;28;20724;-83
2023/02/01 06:42:40;;;;;;;12.98;3.88;;;6.30;99.90;;;;;;5073773;28;20200;-77
2023/02/01 06:45:08;;;;;;;16.45;7.00;;;6.30;99.90;;;;;;5061780;28;20623;-75
2023/02/01 06:47:35;;;;;;;20.40;5.50;;;6.30;99.90;;;;;;5070812;28;20291;-76
2023/02/01 06:50:02;;;;;;;26.30;5.80;;;6.40;99.90;;;;;;5073853;28;20212;-73
2023/02/01 06:52:28;;;;;;;15.77;4.60;;;6.40;99.90;;;;;;5081335;28;20240;-76
2023/02/01 06:54:55;;;;;;;19.35;6.15;;;6.40;99.90;;;;;;5070384;28;20261;-74
2023/02/01 06:57:22;;;;;;;13.70;4.40;;;6.40;99.90;;;;;;5065823;28;20213;-76
2023/02/01 06:59:51;;;;;;;17.40;4.70;;;6.40;99.90;;;;;;5071794;28;20287;-75
2023/02/01 07:02:17;;;;;;;17.70;6.07;;;6.50;99.90;;;;;;5064047;28;20206;-75
2023/02/01 07:04:44;;;;;;;13.57;4.72;;;6.50;99.90;;;;;;5078897;28;20625;-76
2023/02/01 07:07:11;;;;;;;19.23;5.45;;;6.60;99.90;;;;;;5072993;28;20527;-76
2023/02/01 07:09:38;;;;;;;10.50;3.67;;;6.60;99.90;;;;;;5075407;28;20205;-78
2023/02/01 07:12:07;;;;;;;9.63;4.85;;;6.50;99.90;;;;;;5074171;28;20230;-80
2023/02/01 07:14:34;;;;;;;11.65;4.18;;;6.40;99.90;;;;;;5070887;28;20194;-76
2023/02/01 07:17:02;;;;;;;17.50;5.97;;;6.30;99.90;;;;;;5069392;28;20197;-81
2023/02/01 07:19:30;;;;;;;14.85;3.97;;;6.10;99.90;;;;;;5057306;28;20253;-79
2023/02/01 07:21:57;;;;;;;23.65;5.45;;;6.00;99.90;;;;;;5083289;28;20201;-78
2023/02/01 07:24:24;;;;;;;12.20;6.95;;;6.00;99.90;;;;;;5057758;28;20256;-80
2023/02/01 07:26:51;;;;;;;14.52;4.47;;;6.00;99.90;;;;;;5069779;28;20303;-80
2023/02/01 07:29:18;;;;;;;15.90;4.78;;;6.00;99.90;;;;;;5063313;28;20685;-77
2023/02/01 07:31:46;;;;;;;15.20;5.65;;;6.00;99.90;;;;;;5059227;28;20289;-79
2023/02/01 07:34:14;;;;;;;16.13;5.57;;;6.10;99.90;;;;;;5068147;28;20206;-79
2023/02/01 07:36:41;;;;;;;15.57;5.75;;;6.10;99.90;;;;;;5066882;28;20252;-77
2023/02/01 07:39:09;;;;;;;23.13;5.50;;;6.20;99.90;;;;;;5065353;28;20215;-78
2023/02/01 07:41:36;;;;;;;25.58;4.43;;;6.20;99.90;;;;;;5068786;28;20205;-79
2023/02/01 07:44:03;;;;;;;26.42;4.72;;;6.20;99.90;;;;;;5062610;28;20272;-77
2023/02/01 07:46:30;;;;;;;20.92;5.70;;;6.30;99.90;;;;;;5063485;28;20225;-77
2023/02/01 07:48:57;;;;;;;17.58;4.07;;;6.20;99.90;;;;;;5073315;28;20234;-75
2023/02/01 07:51:26;;;;;;;20.77;4.38;;;6.20;99.90;;;;;;5071379;28;20233;-77
2023/02/01 07:53:53;;;;;;;15.25;4.97;;;6.20;99.90;;;;;;5078064;28;20236;-77
2023/02/01 07:56:22;;;;;;;20.25;4.35;;;6.20;99.90;;;;;;5073427;28;20308;-76
2023/02/01 07:58:49;;;;;;;31.58;4.97;;;6.30;99.90;;;;;;5071950;28;20642;-78
2023/02/01 08:01:24;;;;;;;19.92;4.93;;;6.30;99.90;;;;;;5069626;28;20246;-77
2023/02/01 08:03:53;;;;;;;23.05;5.05;;;6.30;99.90;;;;;;5043635;28;20232;-80
2023/02/01 08:06:20;;;;;;;13.57;4.65;;;6.40;99.90;;;;;;5071634;28;20229;-76
2023/02/01 08:08:50;;;;;;;29.13;6.90;;;6.50;99.90;;;;;;5064931;28;20216;-77
2023/02/01 08:11:20;;;;;;;18.90;5.18;;;6.40;99.90;;;;;;5069985;28;20205;-78
2023/02/01 08:13:48;;;;;;;9.55;3.40;;;6.50;99.90;;;;;;5070188;28;20205;-75
2023/02/01 08:16:17;;;;;;;13.77;4.53;;;6.70;99.90;;;;;;5072274;28;20222;-76
2023/02/01 08:18:45;;;;;;;18.52;4.40;;;6.70;99.90;;;;;;5074071;28;20237;-75
2023/02/01 08:21:14;;;;;;;19.48;7.75;;;6.70;99.90;;;;;;5074927;28;20221;-78
2023/02/01 08:23:43;;;;;;;12.30;4.57;;;6.70;99.90;;;;;;5063994;28;20309;-77
2023/02/01 08:26:14;;;;;;;18.48;5.80;;;6.70;99.90;;;;;;5073867;28;20222;-76
2023/02/01 08:28:43;;;;;;;16.02;3.75;;;6.80;99.90;;;;;;5076526;28;20697;-79
2023/02/01 08:31:14;;;;;;;12.60;3.90;;;6.80;99.90;;;;;;5073186;28;20236;-77
2023/02/01 08:33:43;;;;;;;15.07;3.65;;;7.20;99.90;;;;;;5069246;28;20222;-77
2023/02/01 08:36:11;;;;;;;16.08;3.42;;;7.70;99.90;;;;;;5070349;28;20704;-78
2023/02/01 08:38:45;;;;;;;12.38;3.55;;;8.00;99.90;;;;;;5063843;28;20199;-76
2023/02/01 08:41:16;;;;;;;12.68;3.17;;;8.60;99.90;;;;;;5070409;28;20283;-79
2023/02/01 08:44:01;;;;;;;18.77;4.18;;;9.20;99.90;;;;;;5087322;28;20319;-75
2023/02/01 08:46:28;;;;;;;14.35;4.05;;;9.70;99.90;;;;;;5076382;28;20220;-77
2023/02/01 08:48:57;;;;;;;10.80;3.88;;;10.20;99.90;;;;;;5062322;28;20208;-78
2023/02/01 08:51:25;;;;;;;17.92;3.03;;;10.20;99.90;;;;;;5063743;28;20207;-77
2023/02/01 08:53:53;;;;;;;18.45;5.38;;;9.40;99.90;;;;;;5070281;28;20253;-77
2023/02/01 08:56:21;;;;;;;18.38;3.80;;;9.00;99.90;;;;;;5066688;28;20259;-78
2023/02/01 08:58:49;;;;;;;26.73;4.82;;;8.70;99.90;;;;;;5078072;28;20285;-77
2023/02/01 09:01:17;;;;;;;22.88;4.95;;;8.20;99.90;;;;;;5081719;28;20278;-78
2023/02/01 09:03:44;;;;;;;14.90;4.50;;;7.90;99.90;;;;;;5071976;28;20249;-77
2023/02/01 09:06:13;;;;;;;15.07;4.40;;;7.80;99.90;;;;;;5076823;28;20249;-77
2023/02/01 09:08:40;;;;;;;27.25;6.35;;;7.60;99.90;;;;;;5074848;28;20241;-76
2023/02/01 09:11:11;;;;;;;12.27;4.20;;;7.60;99.90;;;;;;5081914;28;20208;-76
2023/02/01 09:13:40;;;;;;;18.52;5.00;;;7.40;99.90;;;;;;5081095;28;20594;-78
2023/02/01 09:16:07;;;;;;;16.30;4.47;;;7.40;99.90;;;;;;5075307;28;20305;-77
2023/02/01 09:18:36;;;;;;;14.15;3.83;;;7.40;99.90;;;;;;5069683;28;20202;-77
2023/02/01 09:21:05;;;;;;;20.17;3.80;;;7.40;99.90;;;;;;5066068;28;20203;-76
2023/02/01 09:23:33;;;;;;;16.45;3.60;;;7.30;99.90;;;;;;5068928;28;20226;-77
2023/02/01 09:26:00;;;;;;;14.88;3.33;;;7.50;99.90;;;;;;5070876;28;20721;-77
2023/02/01 09:28:27;;;;;;;10.18;3.83;;;7.50;99.90;;;;;;5068411;28;20221;-79
2023/02/01 09:30:58;;;;;;;17.63;4.95;;;7.60;99.90;;;;;;5065558;28;20226;-78
2023/02/01 09:33:25;;;;;;;8.60;2.60;;;7.70;99.90;;;;;;5073320;28;20292;-77
2023/02/01 09:35:56;;;;;;;14.23;3.75;;;7.60;99.90;;;;;;5071575;28;20229;-77
2023/02/01 09:38:25;;;;;;;22.88;5.05;;;7.60;99.90;;;;;;5059264;28;20211;-77
2023/02/01 09:40:52;;;;;;;15.68;3.72;;;7.60;99.90;;;;;;5074592;28;20234;-79
2023/02/01 09:43:27;;;;;;;19.13;4.35;;;7.60;99.90;;;;;;5079182;28;20206;-78
2023/02/01 09:46:07;;;;;;;17.88;6.53;;;7.60;99.90;;;;;;5086974;28;20714;-79
2023/02/01 09:48:37;;;;;;;11.05;3.90;;;7.50;99.90;;;;;;5063175;28;20209;-78
2023/02/01 09:51:11;;;;;;;15.85;4.25;;;7.40;99.90;;;;;;5072731;28;20289;-78
2023/02/01 09:53:43;;;;;;;18.80;3.80;;;7.40;99.90;;;;;;5056249;28;20195;-76
2023/02/01 09:58:45;;;;;;;13.77;4.38;;;7.40;99.90;;;;;;5041516;28;20281;-78
2023/02/01 10:01:20;;;;;;;8.52;3.78;;;7.50;99.90;;;;;;5047007;28;20202;-80
2023/02/01 10:03:48;;;;;;;13.25;4.43;;;7.40;99.90;;;;;;5056050;28;20274;-79
2023/02/01 10:06:27;;;;;;;16.40;4.38;;;7.60;99.90;;;;;;5053396;28;20242;-76
2023/02/01 10:09:32;;;;;;;15.77;5.22;;;7.50;99.90;;;;;;5066132;28;20258;-79
2023/02/01 10:12:39;;;;;;;15.57;3.88;;;7.40;99.90;;;;;;5036150;28;20370;-78
2023/02/01 10:15:23;;;;;;;14.82;4.75;;;7.40;99.90;;;;;;4993974;28;20231;-77
2023/02/01 10:18:03;;;;;;;18.52;5.75;;;7.40;99.90;;;;;;5053321;28;20200;-78
2023/02/01 10:20:39;;;;;;;16.38;4.10;;;7.40;99.90;;;;;;5045175;28;20630;-78
2023/02/01 10:23:19;;;;;;;24.85;5.50;;;7.40;99.90;;;;;;5028262;28;20204;-78
2023/02/01 10:25:53;;;;;;;13.25;3.95;;;7.40;99.90;;;;;;5032548;28;20322;-79
2023/02/01 10:28:21;;;;;;;19.48;5.20;;;7.50;99.90;;;;;;5040650;28;20208;-76
2023/02/01 10:30:49;;;;;;;19.90;4.35;;;7.50;99.90;;;;;;5053954;28;20203;-78
2023/02/01 10:33:20;;;;;;;10.52;3.75;;;7.50;99.90;;;;;;5052751;28;20294;-76
2023/02/01 10:35:50;;;;;;;10.38;3.30;;;7.40;99.90;;;;;;5053111;28;20297;-78
2023/02/01 10:38:29;;;;;;;17.13;4.40;;;7.40;99.90;;;;;;5052108;28;20202;-77
2023/02/01 10:41:01;;;;;;;15.88;4.18;;;7.40;99.90;;;;;;5047464;28;20214;-78
2023/02/01 10:43:30;;;;;;;14.73;4.95;;;7.30;99.90;;;;;;5047739;28;20241;-79
2023/02/01 10:45:58;;;;;;;16.17;4.82;;;7.20;99.90;;;;;;5048787;28;20598;-77
2023/02/01 10:48:26;;;;;;;13.73;4.15;;;7.10;99.90;;;;;;5053433;28;20282;-78
2023/02/01 10:50:58;;;;;;;16.75;5.45;;;7.10;99.90;;;;;;5051143;28;20211;-77
2023/02/01 10:53:32;;;;;;;25.33;4.38;;;7.00;99.90;;;;;;5052566;28;20716;-78
2023/02/01 10:56:06;;;;;;;11.88;4.22;;;7.00;99.90;;;;;;5036363;28;20742;-78
2023/02/01 10:58:34;;;;;;;15.80;3.55;;;7.00;99.90;;;;;;5041827;28;20218;-78
2023/02/01 11:01:04;;;;;;;9.55;3.40;;;6.80;99.90;;;;;;5050749;28;20276;-78
2023/02/01 11:03:39;;;;;;;15.05;4.47;;;6.90;99.90;;;;;;5051568;28;20652;-78
2023/02/01 11:06:14;;;;;;;16.17;4.38;;;6.80;99.90;;;;;;5048189;28;20692;-77
2023/02/01 11:08:48;;;;;;;21.80;4.70;;;6.70;99.90;;;;;;5044667;28;20278;-77
2023/02/01 11:11:15;;;;;;;18.17;4.15;;;6.70;99.90;;;;;;5051962;28;20293;-76
2023/02/01 11:13:43;;;;;;;12.30;4.00;;;6.80;99.90;;;;;;5049162;28;20231;-76
2023/02/01 11:16:15;;;;;;;8.90;3.17;;;6.80;99.90;;;;;;5045056;28;20211;-76
2023/02/01 11:18:43;;;;;;;14.95;4.30;;;6.70;99.90;;;;;;5045558;28;20226;-77
2023/02/01 11:21:12;;;;;;;12.43;3.13;;;6.60;99.90;;;;;;5047286;28;20286;-77
2023/02/01 11:23:45;;;;;;;17.55;3.80;;;6.60;99.90;;;;;;5043016;28;20342;-77
2023/02/01 11:26:15;;;;;;;11.57;4.47;;;6.60;99.90;;;;;;5049229;28;20223;-77
2023/02/01 11:28:51;;;;;;;7.07;2.85;;;6.60;99.90;;;;;;5050042;28;20294;-77
2023/02/01 11:31:19;;;;;;;28.15;7.20;;;6.60;99.90;;;;;;5032666;28;20220;-77
2023/02/01 11:33:53;;;;;;;17.92;5.72;;;6.60;99.90;;;;;;5053270;28;20214;-76
2023/02/01 11:36:25;;;;;;;22.65;5.85;;;6.50;99.90;;;;;;5032305;28;20699;-76
2023/02/01 11:39:21;;;;;;;19.00;3.55;;;6.50;99.90;;;;;;5046011;28;20731;-75
2023/02/01 11:41:59;;;;;;;10.18;4.70;;;6.40;99.90;;;;;;5042661;28;20198;-76
2023/02/01 11:44:32;;;;;;;10.40;3.33;;;6.30;99.90;;;;;;5051903;28;20219;-76
2023/02/01 11:47:22;;;;;;;6.53;3.20;;;6.10;99.90;;;;;;5048075;28;20212;-76
2023/02/01 11:49:52;;;;;;;15.77;4.13;;;6.00;99.90;;;;;;5048365;28;20316;-77
2023/02/01 11:52:30;;;;;;;7.90;3.75;;;6.00;99.90;;;;;;5047175;28;20223;-76
2023/02/01 11:55:14;;;;;;;7.20;3.90;;;6.00;99.90;;;;;;5038147;28;20252;-76
2023/02/01 11:57:53;;;;;;;7.50;3.40;;;5.90;99.90;;;;;;5039275;28;20257;-76
2023/02/01 12:00:41;;;;;;;14.25;4.25;;;5.90;99.90;;;;;;5048040;28;20205;-77
2023/02/01 12:03:48;;;;;;;7.95;3.03;;;5.90;99.90;;;;;;5046914;28;20206;-75
2023/02/01 12:06:24;;;;;;;9.80;3.08;;;5.90;99.90;;;;;;5030064;28;20228;-76
2023/02/01 12:09:13;;;;;;;6.82;3.13;;;5.90;99.90;;;;;;5028663;28;20301;-76
2023/02/01 12:11:58;;;;;;;6.28;2.90;;;5.90;99.90;;;;;;5034694;28;20285;-77
2023/02/01 12:14:54;;;;;;;6.70;3.30;;;5.90;99.90;;;;;;5051892;28;20201;-75
2023/02/01 12:17:41;;;;;;;7.07;3.35;;;5.90;99.90;;;;;;5041831;28;20241;-77
2023/02/01 12:20:29;;;;;;;12.95;4.15;;;6.00;99.90;;;;;;5039976;28;20213;-76
2023/02/01 12:23:11;;;;;;;6.68;3.17;;;6.10;99.90;;;;;;5055991;28;20229;-78
2023/02/01 12:25:55;;;;;;;5.03;1.38;;;5.90;99.90;;;;;;5044031;28;20316;-79
2023/02/01 12:28:45;;;;;;;1.92;1.25;;;5.60;99.90;;;;;;5040838;28;20283;-77
2023/02/01 12:31:48;;;;;;;1.98;1.17;;;5.40;99.90;;;;;;5056309;28;20257;-77
2023/02/01 12:34:41;;;;;;;3.03;1.10;;;5.30;99.90;;;;;;5052199;28;20204;-77
2023/02/01 12:37:18;;;;;;;2.05;1.00;;;5.20;99.90;;;;;;5054998;28;20596;-76
2023/02/01 12:39:58;;;;;;;2.08;1.00;;;5.10;99.90;;;;;;5041528;28;20287;-77
2023/02/01 12:42:30;;;;;;;1.85;1.15;;;5.00;99.90;;;;;;5054937;28;20676;-76
2023/02/01 12:45:03;;;;;;;2.22;1.40;;;5.00;99.90;;;;;;5054232;28;20236;-75
2023/02/01 12:47:34;;;;;;;3.35;1.20;;;5.00;99.90;;;;;;5054901;28;20200;-77
2023/02/01 12:50:04;;;;;;;3.22;1.05;;;5.10;99.90;;;;;;5054796;28;20294;-76
2023/02/01 12:52:38;;;;;;;2.38;1.45;;;5.20;99.90;;;;;;5051359;28;20224;-76
2023/02/01 12:55:17;;;;;;;4.53;1.35;;;5.20;99.90;;;;;;5053063;28;20627;-76
2023/02/01 12:57:47;;;;;;;1.52;0.90;;;5.30;99.90;;;;;;5038449;28;20304;-77
2023/02/01 13:00:23;;;;;;;1.35;0.80;;;5.30;99.90;;;;;;5045044;28;20292;-75
2023/02/01 13:02:56;;;;;;;4.30;1.35;;;5.30;99.90;;;;;;5053264;28;20316;-76
2023/02/01 13:05:29;;;;;;;1.77;0.90;;;5.40;99.90;;;;;;5049148;28;20229;-76
2023/02/01 13:08:02;;;;;;;1.77;0.93;;;5.50;99.90;;;;;;5043929;28;20198;-77
2023/02/01 13:10:35;;;;;;;2.55;0.93;;;5.50;99.90;;;;;;5045779;28;20570;-76
2023/02/01 13:13:10;;;;;;;1.63;1.52;;;5.50;99.90;;;;;;5041856;28;20271;-77
2023/02/01 13:15:41;;;;;;;1.45;1.20;;;5.50;99.90;;;;;;5047661;28;20713;-77
2023/02/01 13:18:15;;;;;;;1.98;1.25;;;5.40;99.90;;;;;;5054184;28;20208;-77
2023/02/01 13:20:49;;;;;;;3.05;2.15;;;5.30;99.90;;;;;;5053939;28;20198;-77
2023/02/01 13:23:26;;;;;;;3.55;1.10;;;5.20;99.90;;;;;;5036020;28;20286;-77
2023/02/01 13:25:55;;;;;;;3.55;1.60;;;5.10;99.90;;;;;;5050705;28;20223;-76
2023/02/01 13:28:27;;;;;;;1.33;0.90;;;5.20;99.90;;;;;;5054342;28;20267;-77
2023/02/01 13:31:19;;;;;;;3.95;1.10;;;5.20;99.90;;;;;;5052319;28;20207;-76
2023/02/01 13:34:02;;;;;;;3.40;0.90;;;5.20;99.90;;;;;;5039007;28;20231;-76
2023/02/01 13:36:39;;;;;;;2.17;1.13;;;5.30;99.90;;;;;;5054093;28;20706;-76
2023/02/01 13:39:48;;;;;;;7.15;2.75;;;5.50;99.90;;;;;;5045623;28;20600;-76
2023/02/01 13:42:21;;;;;;;13.38;2.08;;;5.70;99.90;;;;;;5053767;28;20209;-76